Anzahl Datensätze: 288
min. Temperatur: 20.6 °C
max. Temperatur: 31.4 °C
max. Windgeschwindigkeit: 0.0 km/h
Niederschlagsumme: 0.0 mm
| Datum |
Zeit |
Temp °C |
Feuchte % |
Taupunkt °C |
Luftdruck hPa |
Wind km/h |
Windrichtung |
Strahlung w/m² |
Niederschlag mm |
|---|---|---|---|---|---|---|---|---|---|
| 05.08.2022 | 00:04 | 26.7 | 59 | 18.0 | 1009.5 | 0.0 | WNW | 0 | 0.0 |
| 05.08.2022 | 00:08 | 26.7 | 60 | 18.3 | 1009.5 | 0.0 | WNW | 0 | 0.0 |
| 05.08.2022 | 00:14 | 26.3 | 62 | 18.4 | 1009.5 | 0.0 | WNW | 0 | 0.0 |
| 05.08.2022 | 00:18 | 26.2 | 63 | 18.6 | 1009.6 | 0.0 | WNW | 0 | 0.0 |
| 05.08.2022 | 00:24 | 26.1 | 63 | 18.5 | 1009.6 | 0.0 | WNW | 0 | 0.0 |
| 05.08.2022 | 00:28 | 26.1 | 63 | 18.5 | 1009.6 | 0.0 | WNW | 0 | 0.0 |
| 05.08.2022 | 00:34 | 25.7 | 67 | 19.1 | 1009.7 | 0.0 | WNW | 0 | 0.0 |
| 05.08.2022 | 00:38 | 25.2 | 68 | 18.9 | 1009.9 | 0.0 | N | 0 | 0.0 |
| 05.08.2022 | 00:44 | 25.2 | 65 | 18.2 | 1009.9 | 0.0 | NNO | 0 | 0.0 |
| 05.08.2022 | 00:48 | 25.4 | 64 | 18.1 | 1009.9 | 0.0 | NNO | 0 | 0.0 |
| 05.08.2022 | 00:54 | 25.2 | 66 | 18.4 | 1009.8 | 0.0 | N | 0 | 0.0 |
| 05.08.2022 | 00:58 | 25.0 | 65 | 18.0 | 1009.8 | 0.0 | N | 0 | 0.0 |
| 05.08.2022 | 01:04 | 25.1 | 64 | 17.8 | 1009.8 | 0.0 | N | 0 | 0.0 |
| 05.08.2022 | 01:08 | 25.1 | 64 | 17.8 | 1009.9 | 0.0 | N | 0 | 0.0 |
| 05.08.2022 | 01:14 | 24.8 | 66 | 18.0 | 1009.9 | 0.0 | N | 0 | 0.0 |
| 05.08.2022 | 01:18 | 24.7 | 66 | 17.9 | 1009.9 | 0.0 | N | 0 | 0.0 |
| 05.08.2022 | 01:24 | 24.8 | 66 | 18.0 | 1010.0 | 0.0 | N | 0 | 0.0 |
| 05.08.2022 | 01:28 | 24.7 | 66 | 17.9 | 1010.0 | 0.0 | NNW | 0 | 0.0 |
| 05.08.2022 | 01:34 | 25.1 | 61 | 17.0 | 1010.1 | 0.0 | NNW | 0 | 0.0 |
| 05.08.2022 | 01:38 | 25.7 | 59 | 17.1 | 1010.2 | 0.0 | WNW | 0 | 0.0 |
| 05.08.2022 | 01:44 | 25.9 | 59 | 17.3 | 1010.3 | 0.0 | NW | 0 | 0.0 |
| 05.08.2022 | 01:48 | 25.9 | 58 | 17.0 | 1010.2 | 0.0 | NNW | 0 | 0.0 |
| 05.08.2022 | 01:54 | 26.1 | 57 | 16.9 | 1010.3 | 0.0 | NW | 0 | 0.0 |
| 05.08.2022 | 01:58 | 26.2 | 56 | 16.7 | 1010.3 | 0.0 | NNW | 0 | 0.0 |
| 05.08.2022 | 02:04 | 26.4 | 55 | 16.6 | 1010.4 | 0.0 | NNW | 0 | 0.0 |
| 05.08.2022 | 02:08 | 26.4 | 55 | 16.6 | 1010.5 | 0.0 | NW | 0 | 0.0 |
| 05.08.2022 | 02:14 | 26.3 | 56 | 16.8 | 1010.6 | 0.0 | NNW | 0 | 0.0 |
| 05.08.2022 | 02:18 | 26.2 | 57 | 17.0 | 1010.7 | 0.0 | NNW | 0 | 0.0 |
| 05.08.2022 | 02:24 | 26.1 | 57 | 16.9 | 1010.8 | 0.0 | N | 0 | 0.0 |
| 05.08.2022 | 02:28 | 26.2 | 57 | 17.0 | 1010.8 | 0.0 | NW | 0 | 0.0 |
| 05.08.2022 | 02:34 | 26.4 | 57 | 17.2 | 1010.8 | 0.0 | N | 0 | 0.0 |
| 05.08.2022 | 02:38 | 26.7 | 57 | 17.5 | 1010.7 | 0.0 | N | 0 | 0.0 |
| 05.08.2022 | 02:44 | 26.7 | 57 | 17.5 | 1010.8 | 0.0 | NNW | 0 | 0.0 |
| 05.08.2022 | 02:48 | 26.6 | 57 | 17.4 | 1010.8 | 0.0 | NNW | 0 | 0.0 |
| 05.08.2022 | 02:54 | 26.5 | 58 | 17.6 | 1010.7 | 0.0 | NNO | 0 | 0.0 |
| 05.08.2022 | 02:58 | 26.6 | 58 | 17.7 | 1010.5 | 0.0 | NNO | 0 | 0.0 |
| 05.08.2022 | 03:04 | 26.4 | 58 | 17.5 | 1010.4 | 0.0 | NNO | 0 | 0.0 |
| 05.08.2022 | 03:08 | 26.3 | 58 | 17.4 | 1010.4 | 0.0 | NO | 0 | 0.0 |
| 05.08.2022 | 03:14 | 26.1 | 59 | 17.5 | 1010.5 | 0.0 | NO | 0 | 0.0 |
| 05.08.2022 | 03:18 | 26.0 | 59 | 17.4 | 1010.7 | 0.0 | NO | 0 | 0.0 |
| 05.08.2022 | 03:24 | 25.7 | 60 | 17.4 | 1010.6 | 0.0 | NO | 0 | 0.0 |
| 05.08.2022 | 03:28 | 25.7 | 61 | 17.6 | 1010.8 | 0.0 | NO | 0 | 0.0 |
| 05.08.2022 | 03:34 | 25.2 | 62 | 17.4 | 1010.7 | 0.0 | NO | 0 | 0.0 |
| 05.08.2022 | 03:38 | 24.9 | 63 | 17.4 | 1010.7 | 0.0 | NO | 0 | 0.0 |
| 05.08.2022 | 03:44 | 24.6 | 65 | 17.6 | 1010.8 | 0.0 | NO | 0 | 0.0 |
| 05.08.2022 | 03:48 | 24.4 | 65 | 17.4 | 1010.9 | 0.0 | NO | 0 | 0.0 |
| 05.08.2022 | 03:54 | 24.1 | 66 | 17.3 | 1011.0 | 0.0 | NO | 0 | 0.0 |
| 05.08.2022 | 03:58 | 24.0 | 66 | 17.3 | 1011.1 | 0.0 | NO | 0 | 0.0 |
| 05.08.2022 | 04:04 | 23.8 | 67 | 17.3 | 1011.4 | 0.0 | WNW | 0 | 0.0 |
| 05.08.2022 | 04:08 | 23.8 | 67 | 17.3 | 1011.5 | 0.0 | WNW | 0 | 0.0 |
| 05.08.2022 | 04:14 | 23.9 | 67 | 17.4 | 1011.3 | 0.0 | WNW | 0 | 0.0 |
| 05.08.2022 | 04:18 | 23.9 | 67 | 17.4 | 1011.2 | 0.0 | WNW | 0 | 0.0 |
| 05.08.2022 | 04:24 | 23.8 | 67 | 17.3 | 1011.3 | 0.0 | WNW | 0 | 0.0 |
| 05.08.2022 | 04:28 | 23.8 | 68 | 17.5 | 1011.4 | 0.0 | WNW | 0 | 0.0 |
| 05.08.2022 | 04:34 | 23.6 | 69 | 17.6 | 1011.5 | 0.0 | WNW | 0 | 0.0 |
| 05.08.2022 | 04:38 | 23.4 | 69 | 17.4 | 1011.3 | 0.0 | WNW | 0 | 0.0 |
| 05.08.2022 | 04:44 | 23.5 | 69 | 17.5 | 1011.1 | 0.0 | WNW | 0 | 0.0 |
| 05.08.2022 | 04:48 | 23.6 | 69 | 17.6 | 1010.8 | 0.0 | WNW | 0 | 0.0 |
| 05.08.2022 | 04:54 | 23.6 | 69 | 17.6 | 1010.5 | 0.0 | NO | 0 | 0.0 |
| 05.08.2022 | 04:58 | 23.4 | 70 | 17.6 | 1010.6 | 0.0 | NO | 0 | 0.0 |
| 05.08.2022 | 05:04 | 23.3 | 70 | 17.5 | 1010.7 | 0.0 | NO | 0 | 0.0 |
| 05.08.2022 | 05:08 | 23.2 | 71 | 17.6 | 1010.8 | 0.0 | NO | 0 | 0.0 |
| 05.08.2022 | 05:14 | 22.9 | 72 | 17.6 | 1010.9 | 0.0 | NO | 0 | 0.0 |
| 05.08.2022 | 05:18 | 22.9 | 72 | 17.6 | 1011.2 | 0.0 | NO | 0 | 0.0 |
| 05.08.2022 | 05:24 | 22.9 | 72 | 17.6 | 1011.6 | 0.0 | WNW | 0 | 0.0 |
| 05.08.2022 | 05:28 | 22.9 | 72 | 17.6 | 1011.7 | 0.0 | WNW | 0 | 0.0 |
| 05.08.2022 | 05:34 | 22.9 | 72 | 17.6 | 1011.5 | 0.0 | WNW | 0 | 0.0 |
| 05.08.2022 | 05:38 | 22.9 | 72 | 17.6 | 1011.6 | 0.0 | WNW | 0 | 0.0 |
| 05.08.2022 | 05:44 | 22.9 | 72 | 17.6 | 1011.7 | 0.0 | WNW | 0 | 0.0 |
| 05.08.2022 | 05:48 | 22.9 | 72 | 17.6 | 1011.9 | 0.0 | WNW | 0 | 0.0 |
| 05.08.2022 | 05:54 | 22.6 | 73 | 17.5 | 1012.1 | 0.0 | WNW | 0 | 0.0 |
| 05.08.2022 | 05:58 | 22.5 | 74 | 17.6 | 1012.3 | 0.0 | WNW | 0 | 0.0 |
| 05.08.2022 | 06:04 | 22.4 | 73 | 17.3 | 1012.4 | 0.0 | WNW | 5 | 0.0 |
| 05.08.2022 | 06:08 | 22.4 | 73 | 17.3 | 1012.5 | 0.0 | WNW | 5 | 0.0 |
| 05.08.2022 | 06:14 | 22.5 | 73 | 17.4 | 1012.6 | 0.0 | WNW | 5 | 0.0 |
| 05.08.2022 | 06:18 | 22.5 | 73 | 17.4 | 1012.9 | 0.0 | ONO | 7 | 0.0 |
| 05.08.2022 | 06:24 | 22.4 | 73 | 17.3 | 1013.1 | 0.0 | NO | 9 | 0.0 |
| 05.08.2022 | 06:28 | 22.6 | 73 | 17.5 | 1013.2 | 0.0 | NNW | 11 | 0.0 |
| 05.08.2022 | 06:34 | 22.8 | 71 | 17.3 | 1013.3 | 0.0 | W | 12 | 0.0 |
| 05.08.2022 | 06:38 | 22.7 | 72 | 17.4 | 1013.5 | 0.0 | W | 12 | 0.0 |
| 05.08.2022 | 06:44 | 22.7 | 71 | 17.2 | 1013.6 | 0.0 | WNW | 23 | 0.0 |
| 05.08.2022 | 06:48 | 22.9 | 70 | 17.1 | 1013.7 | 0.0 | NW | 39 | 0.0 |
| 05.08.2022 | 06:54 | 23.3 | 68 | 17.1 | 1013.9 | 0.0 | WNW | 46 | 0.0 |
| 05.08.2022 | 06:58 | 23.6 | 68 | 17.3 | 1013.8 | 0.0 | OSO | 46 | 0.0 |
| 05.08.2022 | 07:04 | 23.9 | 66 | 17.2 | 1013.8 | 0.0 | SW | 54 | 0.0 |
| 05.08.2022 | 07:08 | 24.0 | 65 | 17.0 | 1013.9 | 0.0 | W | 46 | 0.0 |
| 05.08.2022 | 07:14 | 24.1 | 65 | 17.1 | 1013.8 | 0.0 | NW | 39 | 0.0 |
| 05.08.2022 | 07:18 | 24.2 | 65 | 17.2 | 1013.9 | 0.0 | NW | 37 | 0.0 |
| 05.08.2022 | 07:24 | 24.2 | 65 | 17.2 | 1013.7 | 0.0 | NW | 39 | 0.0 |
| 05.08.2022 | 07:28 | 24.1 | 66 | 17.3 | 1013.6 | 0.0 | NW | 47 | 0.0 |
| 05.08.2022 | 07:34 | 24.0 | 66 | 17.3 | 1013.6 | 0.0 | NW | 58 | 0.0 |
| 05.08.2022 | 07:38 | 24.2 | 64 | 17.0 | 1013.6 | 0.0 | NW | 60 | 0.0 |
| 05.08.2022 | 07:44 | 24.2 | 66 | 17.4 | 1013.7 | 0.0 | NW | 69 | 0.0 |
| 05.08.2022 | 07:48 | 24.0 | 67 | 17.5 | 1013.7 | 0.0 | NW | 72 | 0.0 |
| 05.08.2022 | 07:54 | 23.9 | 67 | 17.4 | 1013.9 | 0.0 | O | 60 | 0.0 |
| 05.08.2022 | 07:58 | 23.7 | 68 | 17.4 | 1013.9 | 0.0 | N | 58 | 0.0 |
| 05.08.2022 | 08:04 | 23.7 | 68 | 17.4 | 1013.9 | 0.0 | NO | 169 | 0.0 |
| 05.08.2022 | 08:08 | 23.8 | 68 | 17.5 | 1013.9 | 0.0 | NO | 251 | 0.0 |
| 05.08.2022 | 08:14 | 24.3 | 66 | 17.5 | 1014.1 | 0.0 | SSW | 149 | 0.0 |
| 05.08.2022 | 08:18 | 24.4 | 65 | 17.4 | 1014.2 | 0.0 | SW | 167 | 0.0 |
| 05.08.2022 | 08:24 | 24.7 | 65 | 17.7 | 1014.0 | 0.0 | SO | 311 | 0.0 |
| 05.08.2022 | 08:28 | 24.9 | 64 | 17.6 | 1014.0 | 0.0 | SW | 279 | 0.0 |
| 05.08.2022 | 08:34 | 25.1 | 62 | 17.3 | 1014.0 | 0.0 | SW | 327 | 0.0 |
| 05.08.2022 | 08:38 | 25.3 | 62 | 17.5 | 1014.1 | 0.0 | W | 362 | 0.0 |
| 05.08.2022 | 08:44 | 25.4 | 61 | 17.3 | 1014.2 | 0.0 | WSW | 160 | 0.0 |
| 05.08.2022 | 08:48 | 25.4 | 61 | 17.3 | 1014.2 | 0.0 | WSW | 220 | 0.0 |
| 05.08.2022 | 08:54 | 25.4 | 61 | 17.3 | 1014.2 | 0.0 | WSW | 114 | 0.0 |
| 05.08.2022 | 08:58 | 25.3 | 61 | 17.2 | 1014.4 | 0.0 | WNW | 114 | 0.0 |
| 05.08.2022 | 09:04 | 25.5 | 62 | 17.7 | 1014.4 | 0.0 | NW | 390 | 0.0 |
| 05.08.2022 | 09:08 | 25.9 | 61 | 17.8 | 1014.4 | 0.0 | W | 418 | 0.0 |
| 05.08.2022 | 09:14 | 26.1 | 59 | 17.5 | 1014.5 | 0.0 | WNW | 401 | 0.0 |
| 05.08.2022 | 09:18 | 26.2 | 59 | 17.6 | 1014.4 | 0.0 | W | 427 | 0.0 |
| 05.08.2022 | 09:24 | 26.4 | 59 | 17.7 | 1014.5 | 0.0 | W | 497 | 0.0 |
| 05.08.2022 | 09:28 | 26.8 | 58 | 17.8 | 1014.4 | 0.0 | WNW | 543 | 0.0 |
| 05.08.2022 | 09:34 | 26.8 | 57 | 17.6 | 1014.4 | 0.0 | S | 496 | 0.0 |
| 05.08.2022 | 09:38 | 26.8 | 57 | 17.6 | 1014.4 | 0.0 | S | 230 | 0.0 |
| 05.08.2022 | 09:44 | 26.4 | 58 | 17.5 | 1014.5 | 0.0 | WSW | 225 | 0.0 |
| 05.08.2022 | 09:48 | 26.3 | 59 | 17.6 | 1014.5 | 0.0 | SW | 323 | 0.0 |
| 05.08.2022 | 09:54 | 26.7 | 58 | 17.7 | 1014.5 | 0.0 | SW | 315 | 0.0 |
| 05.08.2022 | 09:58 | 26.7 | 58 | 17.7 | 1014.3 | 0.0 | WNW | 403 | 0.0 |
| 05.08.2022 | 10:04 | 27.2 | 57 | 17.9 | 1014.0 | 0.0 | SW | 316 | 0.0 |
| 05.08.2022 | 10:08 | 26.9 | 57 | 17.7 | 1013.6 | 0.0 | WNW | 290 | 0.0 |
| 05.08.2022 | 10:14 | 26.8 | 55 | 17.0 | 1013.4 | 0.0 | WSW | 353 | 0.0 |
| 05.08.2022 | 10:18 | 26.8 | 55 | 17.0 | 1013.2 | 0.0 | WSW | 343 | 0.0 |
| 05.08.2022 | 10:24 | 26.9 | 56 | 17.4 | 1013.2 | 0.0 | WSW | 151 | 0.0 |
| 05.08.2022 | 10:28 | 26.4 | 59 | 17.7 | 1013.2 | 0.0 | WSW | 158 | 0.0 |
| 05.08.2022 | 10:34 | 25.8 | 64 | 18.5 | 1013.3 | 0.0 | WNW | 712 | 0.0 |
| 05.08.2022 | 10:38 | 26.3 | 63 | 18.7 | 1013.3 | 0.0 | W | 735 | 0.0 |
| 05.08.2022 | 10:44 | 26.4 | 60 | 18.0 | 1013.2 | 0.0 | WSW | 283 | 0.0 |
| 05.08.2022 | 10:48 | 26.3 | 61 | 18.2 | 1013.1 | 0.0 | WSW | 322 | 0.0 |
| 05.08.2022 | 10:54 | 26.6 | 60 | 18.2 | 1013.0 | 0.0 | SW | 383 | 0.0 |
| 05.08.2022 | 10:58 | 26.7 | 60 | 18.3 | 1013.2 | 0.0 | SW | 782 | 0.0 |
| 05.08.2022 | 11:04 | 27.1 | 58 | 18.1 | 1013.4 | 0.0 | W | 352 | 0.0 |
| 05.08.2022 | 11:08 | 27.1 | 58 | 18.1 | 1013.4 | 0.0 | W | 425 | 0.0 |
| 05.08.2022 | 11:14 | 27.4 | 57 | 18.1 | 1013.4 | 0.0 | WSW | 677 | 0.0 |
| 05.08.2022 | 11:18 | 27.7 | 57 | 18.4 | 1013.4 | 0.0 | SW | 680 | 0.0 |
| 05.08.2022 | 11:24 | 27.8 | 57 | 18.5 | 1013.4 | 0.0 | SW | 626 | 0.0 |
| 05.08.2022 | 11:28 | 28.1 | 55 | 18.2 | 1013.5 | 0.0 | WSW | 717 | 0.0 |
| 05.08.2022 | 11:34 | 28.2 | 55 | 18.3 | 1013.6 | 0.0 | WNW | 701 | 0.0 |
| 05.08.2022 | 11:38 | 28.5 | 53 | 18.0 | 1013.6 | 0.0 | W | 563 | 0.0 |
| 05.08.2022 | 11:44 | 28.6 | 55 | 18.7 | 1013.6 | 0.0 | W | 680 | 0.0 |
| 05.08.2022 | 11:48 | 28.8 | 52 | 18.0 | 1013.6 | 0.0 | WSW | 668 | 0.0 |
| 05.08.2022 | 11:54 | 28.7 | 52 | 17.9 | 1013.5 | 0.0 | W | 722 | 0.0 |
| 05.08.2022 | 11:58 | 28.6 | 53 | 18.1 | 1013.5 | 0.0 | WSW | 643 | 0.0 |
| 05.08.2022 | 12:04 | 28.7 | 53 | 18.2 | 1013.5 | 0.0 | WSW | 714 | 0.0 |
| 05.08.2022 | 12:08 | 29.1 | 53 | 18.5 | 1013.5 | 0.0 | WNW | 770 | 0.0 |
| 05.08.2022 | 12:14 | 29.4 | 51 | 18.2 | 1013.4 | 0.0 | WSW | 652 | 0.0 |
| 05.08.2022 | 12:18 | 29.5 | 51 | 18.3 | 1013.5 | 0.0 | WNW | 772 | 0.0 |
| 05.08.2022 | 12:24 | 29.5 | 49 | 17.7 | 1013.5 | 0.0 | W | 786 | 0.0 |
| 05.08.2022 | 12:28 | 29.4 | 49 | 17.6 | 1013.5 | 0.0 | W | 759 | 0.0 |
| 05.08.2022 | 12:34 | 29.6 | 49 | 17.8 | 1013.5 | 0.0 | NW | 812 | 0.0 |
| 05.08.2022 | 12:38 | 29.8 | 48 | 17.6 | 1013.4 | 0.0 | SSW | 650 | 0.0 |
| 05.08.2022 | 12:44 | 30.0 | 47 | 17.5 | 1013.4 | 0.0 | W | 345 | 0.0 |
| 05.08.2022 | 12:48 | 29.8 | 48 | 17.6 | 1013.5 | 0.0 | WNW | 824 | 0.0 |
| 05.08.2022 | 12:54 | 29.7 | 48 | 17.5 | 1013.5 | 0.0 | W | 810 | 0.0 |
| 05.08.2022 | 12:58 | 30.3 | 48 | 18.1 | 1013.5 | 0.0 | W | 773 | 0.0 |
| 05.08.2022 | 13:04 | 30.1 | 48 | 17.9 | 1013.4 | 0.0 | SW | 722 | 0.0 |
| 05.08.2022 | 13:08 | 29.8 | 48 | 17.6 | 1013.4 | 0.0 | SSW | 714 | 0.0 |
| 05.08.2022 | 13:14 | 30.6 | 49 | 18.7 | 1013.4 | 0.0 | WSW | 854 | 0.0 |
| 05.08.2022 | 13:18 | 31.3 | 46 | 18.3 | 1013.5 | 0.0 | NW | 708 | 0.0 |
| 05.08.2022 | 13:24 | 30.9 | 47 | 18.3 | 1013.5 | 0.0 | S | 636 | 0.0 |
| 05.08.2022 | 13:28 | 30.7 | 47 | 18.1 | 1013.5 | 0.0 | S | 735 | 0.0 |
| 05.08.2022 | 13:34 | 30.9 | 46 | 17.9 | 1013.5 | 0.0 | NNW | 733 | 0.0 |
| 05.08.2022 | 13:38 | 30.9 | 47 | 18.3 | 1013.5 | 0.0 | W | 823 | 0.0 |
| 05.08.2022 | 13:44 | 31.4 | 45 | 18.0 | 1013.5 | 0.0 | WSW | 656 | 0.0 |
| 05.08.2022 | 13:48 | 30.3 | 47 | 17.7 | 1013.6 | 0.0 | WNW | 455 | 0.0 |
| 05.08.2022 | 13:54 | 30.2 | 49 | 18.3 | 1013.6 | 0.0 | N | 406 | 0.0 |
| 05.08.2022 | 13:58 | 30.7 | 49 | 18.8 | 1013.6 | 0.0 | WNW | 710 | 0.0 |
| 05.08.2022 | 14:04 | 30.9 | 47 | 18.3 | 1013.5 | 0.0 | WNW | 770 | 0.0 |
| 05.08.2022 | 14:08 | 31.1 | 47 | 18.5 | 1013.5 | 0.0 | WNW | 666 | 0.0 |
| 05.08.2022 | 14:14 | 30.9 | 46 | 17.9 | 1013.5 | 0.0 | WNW | 619 | 0.0 |
| 05.08.2022 | 14:18 | 30.9 | 47 | 18.3 | 1013.6 | 0.0 | NW | 680 | 0.0 |
| 05.08.2022 | 14:24 | 30.9 | 47 | 18.3 | 1013.6 | 0.0 | WNW | 471 | 0.0 |
| 05.08.2022 | 14:28 | 30.6 | 48 | 18.3 | 1013.6 | 0.0 | NNW | 524 | 0.0 |
| 05.08.2022 | 14:34 | 30.6 | 48 | 18.3 | 1013.6 | 0.0 | NW | 643 | 0.0 |
| 05.08.2022 | 14:38 | 30.9 | 48 | 18.6 | 1013.6 | 0.0 | SW | 610 | 0.0 |
| 05.08.2022 | 14:44 | 31.0 | 48 | 18.7 | 1013.6 | 0.0 | NW | 679 | 0.0 |
| 05.08.2022 | 14:48 | 31.1 | 49 | 19.1 | 1013.6 | 0.0 | N | 726 | 0.0 |
| 05.08.2022 | 14:54 | 31.1 | 49 | 19.1 | 1013.7 | 0.0 | W | 715 | 0.0 |
| 05.08.2022 | 14:58 | 30.9 | 49 | 18.9 | 1013.7 | 0.0 | W | 635 | 0.0 |
| 05.08.2022 | 15:04 | 30.4 | 50 | 18.8 | 1013.9 | 0.0 | WNW | 568 | 0.0 |
| 05.08.2022 | 15:08 | 30.1 | 51 | 18.8 | 1013.9 | 0.0 | N | 527 | 0.0 |
| 05.08.2022 | 15:14 | 30.0 | 52 | 19.1 | 1013.9 | 0.0 | WNW | 628 | 0.0 |
| 05.08.2022 | 15:18 | 29.8 | 53 | 19.2 | 1014.0 | 0.0 | W | 596 | 0.0 |
| 05.08.2022 | 15:24 | 29.6 | 54 | 19.3 | 1014.0 | 0.0 | NW | 420 | 0.0 |
| 05.08.2022 | 15:28 | 29.1 | 55 | 19.1 | 1014.0 | 0.0 | NW | 492 | 0.0 |
| 05.08.2022 | 15:34 | 29.1 | 55 | 19.1 | 1014.1 | 0.0 | WNW | 617 | 0.0 |
| 05.08.2022 | 15:38 | 28.8 | 55 | 18.9 | 1014.1 | 0.0 | WNW | 388 | 0.0 |
| 05.08.2022 | 15:44 | 28.3 | 57 | 19.0 | 1014.1 | 0.0 | NNW | 346 | 0.0 |
| 05.08.2022 | 15:48 | 28.3 | 57 | 19.0 | 1014.0 | 0.0 | NNW | 350 | 0.0 |
| 05.08.2022 | 15:54 | 28.1 | 57 | 18.8 | 1014.0 | 0.0 | WNW | 278 | 0.0 |
| 05.08.2022 | 15:58 | 28.1 | 57 | 18.8 | 1014.1 | 0.0 | NNW | 311 | 0.0 |
| 05.08.2022 | 16:04 | 28.1 | 58 | 19.1 | 1014.0 | 0.0 | NNW | 313 | 0.0 |
| 05.08.2022 | 16:08 | 28.2 | 58 | 19.2 | 1014.0 | 0.0 | N | 316 | 0.0 |
| 05.08.2022 | 16:14 | 28.3 | 57 | 19.0 | 1014.0 | 0.0 | NW | 577 | 0.0 |
| 05.08.2022 | 16:18 | 28.8 | 56 | 19.1 | 1014.0 | 0.0 | WNW | 636 | 0.0 |
| 05.08.2022 | 16:24 | 28.8 | 56 | 19.1 | 1013.8 | 0.0 | W | 564 | 0.0 |
| 05.08.2022 | 16:28 | 29.0 | 56 | 19.3 | 1013.8 | 0.0 | NNW | 610 | 0.0 |
| 05.08.2022 | 16:34 | 28.9 | 55 | 19.0 | 1013.9 | 0.0 | WNW | 359 | 0.0 |
| 05.08.2022 | 16:38 | 28.8 | 56 | 19.1 | 1013.8 | 0.0 | NW | 510 | 0.0 |
| 05.08.2022 | 16:44 | 28.6 | 55 | 18.7 | 1013.9 | 0.0 | WNW | 362 | 0.0 |
| 05.08.2022 | 16:48 | 28.6 | 55 | 18.7 | 1013.9 | 0.0 | NW | 295 | 0.0 |
| 05.08.2022 | 16:54 | 28.2 | 56 | 18.6 | 1013.9 | 0.0 | NNW | 276 | 0.0 |
| 05.08.2022 | 16:58 | 28.3 | 56 | 18.7 | 1013.9 | 0.0 | NNW | 265 | 0.0 |
| 05.08.2022 | 17:04 | 28.2 | 56 | 18.6 | 1013.9 | 0.0 | NNW | 396 | 0.0 |
| 05.08.2022 | 17:08 | 28.4 | 55 | 18.5 | 1013.9 | 0.0 | NW | 367 | 0.0 |
| 05.08.2022 | 17:14 | 28.1 | 55 | 18.2 | 1013.9 | 0.0 | WNW | 186 | 0.0 |
| 05.08.2022 | 17:18 | 27.8 | 56 | 18.2 | 1014.0 | 0.0 | NW | 183 | 0.0 |
| 05.08.2022 | 17:24 | 27.9 | 57 | 18.6 | 1014.1 | 0.0 | NW | 185 | 0.0 |
| 05.08.2022 | 17:28 | 27.8 | 57 | 18.5 | 1014.2 | 0.0 | NNW | 160 | 0.0 |
| 05.08.2022 | 17:34 | 27.5 | 57 | 18.2 | 1014.2 | 0.0 | N | 163 | 0.0 |
| 05.08.2022 | 17:38 | 27.4 | 58 | 18.4 | 1014.3 | 0.0 | N | 167 | 0.0 |
| 05.08.2022 | 17:44 | 27.4 | 57 | 18.1 | 1014.3 | 0.0 | NNW | 151 | 0.0 |
| 05.08.2022 | 17:48 | 27.4 | 57 | 18.1 | 1014.4 | 0.0 | N | 118 | 0.0 |
| 05.08.2022 | 17:54 | 27.3 | 58 | 18.3 | 1014.4 | 0.0 | NW | 107 | 0.0 |
| 05.08.2022 | 17:58 | 27.2 | 58 | 18.2 | 1014.4 | 0.0 | WNW | 109 | 0.0 |
| 05.08.2022 | 18:04 | 27.1 | 58 | 18.1 | 1014.5 | 0.0 | NW | 97 | 0.0 |
| 05.08.2022 | 18:08 | 27.1 | 58 | 18.1 | 1014.6 | 0.0 | NW | 76 | 0.0 |
| 05.08.2022 | 18:14 | 26.9 | 58 | 17.9 | 1014.7 | 0.0 | NW | 65 | 0.0 |
| 05.08.2022 | 18:18 | 26.8 | 58 | 17.8 | 1014.7 | 0.0 | NNW | 67 | 0.0 |
| 05.08.2022 | 18:24 | 26.7 | 58 | 17.7 | 1014.8 | 0.0 | NW | 86 | 0.0 |
| 05.08.2022 | 18:28 | 26.7 | 58 | 17.7 | 1014.8 | 0.0 | NNW | 97 | 0.0 |
| 05.08.2022 | 18:34 | 26.4 | 62 | 18.5 | 1015.1 | 0.0 | ONO | 69 | 0.0 |
| 05.08.2022 | 18:38 | 25.9 | 63 | 18.3 | 1015.3 | 0.0 | NNO | 70 | 0.0 |
| 05.08.2022 | 18:44 | 25.1 | 65 | 18.1 | 1015.3 | 0.0 | N | 84 | 0.0 |
| 05.08.2022 | 18:48 | 24.9 | 66 | 18.1 | 1015.5 | 0.0 | N | 79 | 0.0 |
| 05.08.2022 | 18:54 | 24.7 | 65 | 17.7 | 1015.3 | 0.0 | NO | 53 | 0.0 |
| 05.08.2022 | 18:58 | 24.4 | 65 | 17.4 | 1015.4 | 0.0 | N | 39 | 0.0 |
| 05.08.2022 | 19:04 | 24.2 | 65 | 17.2 | 1015.6 | 0.0 | NNO | 37 | 0.0 |
| 05.08.2022 | 19:08 | 24.2 | 66 | 17.4 | 1015.6 | 0.0 | N | 65 | 0.0 |
| 05.08.2022 | 19:14 | 24.2 | 66 | 17.4 | 1015.5 | 0.0 | NNO | 90 | 0.0 |
| 05.08.2022 | 19:18 | 24.2 | 66 | 17.4 | 1015.6 | 0.0 | NNO | 65 | 0.0 |
| 05.08.2022 | 19:24 | 24.1 | 66 | 17.3 | 1015.8 | 0.0 | N | 46 | 0.0 |
| 05.08.2022 | 19:28 | 24.1 | 67 | 17.6 | 1015.8 | 0.0 | N | 42 | 0.0 |
| 05.08.2022 | 19:34 | 23.9 | 67 | 17.4 | 1015.8 | 0.0 | NNO | 54 | 0.0 |
| 05.08.2022 | 19:38 | 23.8 | 67 | 17.3 | 1015.9 | 0.0 | NNW | 47 | 0.0 |
| 05.08.2022 | 19:44 | 23.8 | 67 | 17.3 | 1015.9 | 0.0 | NNW | 39 | 0.0 |
| 05.08.2022 | 19:48 | 23.7 | 66 | 17.0 | 1016.0 | 0.0 | NNO | 37 | 0.0 |
| 05.08.2022 | 19:54 | 23.6 | 65 | 16.6 | 1016.1 | 0.0 | NNW | 30 | 0.0 |
| 05.08.2022 | 19:58 | 23.6 | 65 | 16.6 | 1016.2 | 0.0 | NNW | 23 | 0.0 |
| 05.08.2022 | 20:04 | 23.5 | 65 | 16.5 | 1016.2 | 0.0 | N | 25 | 0.0 |
| 05.08.2022 | 20:08 | 23.4 | 63 | 16.0 | 1016.3 | 0.0 | NNO | 23 | 0.0 |
| 05.08.2022 | 20:14 | 23.3 | 62 | 15.6 | 1016.4 | 0.0 | NW | 21 | 0.0 |
| 05.08.2022 | 20:18 | 23.1 | 61 | 15.2 | 1016.7 | 0.0 | NNO | 16 | 0.0 |
| 05.08.2022 | 20:24 | 23.0 | 61 | 15.1 | 1016.6 | 0.0 | NNO | 19 | 0.0 |
| 05.08.2022 | 20:28 | 22.9 | 61 | 15.0 | 1016.6 | 0.0 | NNO | 19 | 0.0 |
| 05.08.2022 | 20:34 | 22.7 | 62 | 15.0 | 1016.7 | 0.0 | NNO | 12 | 0.0 |
| 05.08.2022 | 20:38 | 22.6 | 62 | 14.9 | 1016.7 | 0.0 | N | 11 | 0.0 |
| 05.08.2022 | 20:44 | 22.5 | 62 | 14.9 | 1016.8 | 0.0 | NNW | 12 | 0.0 |
| 05.08.2022 | 20:48 | 22.4 | 62 | 14.8 | 1017.0 | 0.0 | NNO | 7 | 0.0 |
| 05.08.2022 | 20:54 | 22.3 | 62 | 14.7 | 1017.1 | 0.0 | NW | 5 | 0.0 |
| 05.08.2022 | 20:58 | 22.2 | 63 | 14.8 | 1017.2 | 0.0 | NNO | 0 | 0.0 |
| 05.08.2022 | 21:04 | 22.2 | 64 | 15.1 | 1017.3 | 0.0 | N | 0 | 0.0 |
| 05.08.2022 | 21:08 | 22.2 | 64 | 15.1 | 1017.4 | 0.0 | N | 0 | 0.0 |
| 05.08.2022 | 21:14 | 22.2 | 64 | 15.1 | 1017.6 | 0.0 | NNO | 0 | 0.0 |
| 05.08.2022 | 21:18 | 22.1 | 64 | 15.0 | 1017.7 | 0.0 | N | 0 | 0.0 |
| 05.08.2022 | 21:24 | 22.1 | 64 | 15.0 | 1017.8 | 0.0 | N | 0 | 0.0 |
| 05.08.2022 | 21:28 | 22.0 | 65 | 15.1 | 1017.9 | 0.0 | NNO | 0 | 0.0 |
| 05.08.2022 | 21:34 | 21.9 | 65 | 15.0 | 1018.1 | 0.0 | N | 0 | 0.0 |
| 05.08.2022 | 21:38 | 21.9 | 64 | 14.8 | 1018.1 | 0.0 | NNW | 0 | 0.0 |
| 05.08.2022 | 21:44 | 21.9 | 64 | 14.8 | 1018.2 | 0.0 | N | 0 | 0.0 |
| 05.08.2022 | 21:48 | 21.9 | 64 | 14.8 | 1018.2 | 0.0 | N | 0 | 0.0 |
| 05.08.2022 | 21:54 | 21.9 | 64 | 14.8 | 1018.2 | 0.0 | NNO | 0 | 0.0 |
| 05.08.2022 | 21:58 | 21.9 | 64 | 14.8 | 1018.2 | 0.0 | NNO | 0 | 0.0 |
| 05.08.2022 | 22:04 | 21.9 | 64 | 14.8 | 1018.5 | 0.0 | N | 0 | 0.0 |
| 05.08.2022 | 22:08 | 21.9 | 64 | 14.8 | 1018.5 | 0.0 | N | 0 | 0.0 |
| 05.08.2022 | 22:14 | 21.6 | 67 | 15.2 | 1018.6 | 0.0 | N | 0 | 0.0 |
| 05.08.2022 | 22:18 | 21.4 | 69 | 15.5 | 1018.6 | 0.0 | N | 0 | 0.0 |
| 05.08.2022 | 22:24 | 20.8 | 72 | 15.6 | 1018.6 | 0.0 | N | 538 | 0.0 |
| 05.08.2022 | 22:28 | 20.7 | 71 | 15.3 | 1018.8 | 0.0 | NNO | 541 | 0.0 |
| 05.08.2022 | 22:34 | 20.6 | 71 | 15.2 | 1018.9 | 0.0 | NNO | 547 | 0.0 |
| 05.08.2022 | 22:38 | 20.7 | 71 | 15.3 | 1019.1 | 0.0 | NNO | 550 | 0.0 |
| 05.08.2022 | 22:44 | 20.7 | 71 | 15.3 | 1019.0 | 0.0 | NNO | 557 | 0.0 |
| 05.08.2022 | 22:48 | 20.7 | 70 | 15.0 | 1019.1 | 0.0 | NNO | 561 | 0.0 |
| 05.08.2022 | 22:54 | 20.7 | 70 | 15.0 | 1019.1 | 0.0 | NNO | 617 | 0.0 |
| 05.08.2022 | 22:58 | 20.8 | 70 | 15.1 | 1019.1 | 0.0 | NNO | 617 | 0.0 |
| 05.08.2022 | 23:04 | 20.9 | 69 | 15.0 | 1019.2 | 0.0 | NNO | 0 | 0.0 |
| 05.08.2022 | 23:08 | 20.8 | 69 | 14.9 | 1019.1 | 0.0 | N | 0 | 0.0 |
| 05.08.2022 | 23:14 | 20.9 | 69 | 15.0 | 1019.2 | 0.0 | NNO | 0 | 0.0 |
| 05.08.2022 | 23:18 | 20.8 | 69 | 14.9 | 1019.2 | 0.0 | N | 0 | 0.0 |
| 05.08.2022 | 23:24 | 20.8 | 69 | 14.9 | 1019.3 | 0.0 | N | 0 | 0.0 |
| 05.08.2022 | 23:28 | 20.9 | 69 | 15.0 | 1019.2 | 0.0 | N | 0 | 0.0 |
| 05.08.2022 | 23:34 | 20.9 | 69 | 15.0 | 1019.2 | 0.0 | NNO | 0 | 0.0 |
| 05.08.2022 | 23:38 | 20.9 | 69 | 15.0 | 1019.2 | 0.0 | NNO | 0 | 0.0 |
| 05.08.2022 | 23:44 | 20.9 | 69 | 15.0 | 1019.3 | 0.0 | N | 0 | 0.0 |
| 05.08.2022 | 23:48 | 20.9 | 68 | 14.8 | 1019.4 | 0.0 | NNO | 0 | 0.0 |
| 05.08.2022 | 23:54 | 20.9 | 67 | 14.5 | 1019.5 | 0.0 | NNO | 0 | 0.0 |
| 05.08.2022 | 23:58 | 20.9 | 67 | 14.5 | 1019.5 | 0.0 | NNO | 0 | 0.0 |